Time;durP1;ratioP1;P1;durP2;ratioP2;P2;SDS_P1;SDS_P2;PMS_P1;PMS_P2;Temp;Humidity;BMP_temperature;BMP_pressure;BME280_temperature;BME280_humidity;BME280_pressure;Samples;Min_cycle;Max_cycle;Signal;HPM_P1;HPM_P2
2023/02/20 00:01:59;;;;;;;;;;;19.10;53.90;;;;;;7568833;23;19963;-71
2023/02/20 00:05:00;;;;;;;;;;;19.10;53.90;;;;;;7521968;23;19913;-71
2023/02/20 00:08:00;;;;;;;;;;;19.10;53.90;;;;;;7521482;23;19932;-72
2023/02/20 00:11:01;;;;;;;;;;;19.10;53.90;;;;;;7522081;23;19910;-71
2023/02/20 00:14:01;;;;;;;;;;;19.10;53.90;;;;;;7521890;23;19989;-72
2023/02/20 00:17:02;;;;;;;;;;;19.10;53.90;;;;;;7521628;23;19912;-72
2023/02/20 00:20:03;;;;;;;;;;;19.10;53.90;;;;;;7521629;23;19906;-72
2023/02/20 00:23:04;;;;;;;;;;;19.10;53.80;;;;;;7522643;23;19917;-71
2023/02/20 00:26:07;;;;;;;;;;;19.10;53.90;;;;;;7523071;23;19917;-71
2023/02/20 00:29:08;;;;;;;;;;;19.10;53.90;;;;;;7523325;23;19906;-71
2023/02/20 00:32:08;;;;;;;;;;;19.10;53.90;;;;;;7523014;23;20344;-71
2023/02/20 00:35:10;;;;;;;;;;;19.10;53.90;;;;;;7523364;23;19910;-72
2023/02/20 00:38:10;;;;;;;;;;;19.10;53.80;;;;;;7522778;23;19992;-71
2023/02/20 00:41:13;;;;;;;;;;;19.10;54.60;;;;;;7523727;23;19906;-72
2023/02/20 00:44:13;;;;;;;;;;;19.10;53.90;;;;;;7522162;23;19910;-71
2023/02/20 00:47:14;;;;;;;;;;;19.10;53.90;;;;;;7519884;23;19988;-72
2023/02/20 00:50:15;;;;;;;;;;;19.10;53.80;;;;;;7523335;23;19920;-71
2023/02/20 00:53:15;;;;;;;;;;;19.10;53.80;;;;;;7523326;23;20333;-72
2023/02/20 00:56:16;;;;;;;;;;;19.10;53.80;;;;;;7523840;23;19912;-72
2023/02/20 00:59:16;;;;;;;;;;;19.10;53.80;;;;;;7522985;23;19985;-72
2023/02/20 01:02:17;;;;;;;;;;;19.10;53.80;;;;;;7523612;23;19913;-72
2023/02/20 01:05:18;;;;;;;;;;;19.10;53.80;;;;;;7522947;23;19936;-71
2023/02/20 01:08:18;;;;;;;;;;;19.10;53.80;;;;;;7523027;23;19905;-72
2023/02/20 01:11:19;;;;;;;;;;;19.10;53.80;;;;;;7522758;23;19916;-71
2023/02/20 01:14:20;;;;;;;;;;;19.10;53.80;;;;;;7522960;23;19957;-71
2023/02/20 01:17:20;;;;;;;;;;;19.10;53.80;;;;;;7522602;23;19914;-71
2023/02/20 01:20:21;;;;;;;;;;;19.10;53.80;;;;;;7523479;23;19913;-72
2023/02/20 01:23:22;;;;;;;;;;;19.10;53.80;;;;;;7569649;23;20000;-72
2023/02/20 01:26:22;;;;;;;;;;;19.10;53.80;;;;;;7523035;23;20261;-72
2023/02/20 01:29:23;;;;;;;;;;;19.10;53.80;;;;;;7522433;23;19914;-71
2023/02/20 01:32:23;;;;;;;;;;;19.10;53.80;;;;;;7522832;23;19909;-72
2023/02/20 01:35:24;;;;;;;;;;;19.10;53.80;;;;;;7522448;23;19959;-71
2023/02/20 01:38:24;;;;;;;;;;;19.10;53.80;;;;;;7522709;23;19957;-71
2023/02/20 01:41:25;;;;;;;;;;;19.10;53.80;;;;;;7522772;23;19910;-71
2023/02/20 01:44:27;;;;;;;;;;;19.10;53.80;;;;;;7522584;23;19909;-72
2023/02/20 01:47:28;;;;;;;;;;;19.10;53.80;;;;;;7522918;23;19916;-71
2023/02/20 01:50:30;;;;;;;;;;;19.10;53.70;;;;;;7522714;23;19909;-72
2023/02/20 01:53:31;;;;;;;;;;;19.10;53.80;;;;;;7522575;23;20237;-71
2023/02/20 01:56:31;;;;;;;;;;;19.10;53.70;;;;;;7522836;23;19906;-71
2023/02/20 01:59:34;;;;;;;;;;;19.10;53.70;;;;;;7521709;23;20384;-72
2023/02/20 02:02:36;;;;;;;;;;;19.10;53.70;;;;;;7521986;23;19951;-72
2023/02/20 02:05:39;;;;;;;;;;;19.10;53.80;;;;;;7522072;23;20000;-71
2023/02/20 02:08:40;;;;;;;;;;;19.10;53.80;;;;;;7547721;23;19956;-71
2023/02/20 02:11:41;;;;;;;;;;;19.10;53.80;;;;;;7522362;23;20340;-72
2023/02/20 02:14:41;;;;;;;;;;;19.10;53.70;;;;;;7522808;23;19909;-71
2023/02/20 02:18:00;;;;;;;;;;;19.10;53.70;;;;;;7522480;23;19969;-71
2023/02/20 02:21:06;;;;;;;;;;;19.10;53.70;;;;;;7522882;23;19906;-72
2023/02/20 02:24:15;;;;;;;;;;;19.10;53.70;;;;;;7522243;23;20369;-71
2023/02/20 02:27:16;;;;;;;;;;;19.10;53.70;;;;;;7673090;23;19921;-71
2023/02/20 02:30:35;;;;;;;;;;;19.10;53.80;;;;;;7522489;23;19910;-72
2023/02/20 02:33:38;;;;;;;;;;;19.10;53.70;;;;;;7522560;23;19907;-72
2023/02/20 02:36:47;;;;;;;;;;;19.10;53.70;;;;;;7522003;23;19929;-71
2023/02/20 02:39:48;;;;;;;;;;;19.10;53.70;;;;;;7522603;23;19926;-72
2023/02/20 02:42:51;;;;;;;;;;;19.10;53.80;;;;;;7521927;23;19910;-71
2023/02/20 02:45:58;;;;;;;;;;;19.10;53.80;;;;;;7522212;23;19914;-72
2023/02/20 02:49:02;;;;;;;;;;;19.10;53.70;;;;;;7522423;23;19906;-71
2023/02/20 02:52:04;;;;;;;;;;;19.10;53.80;;;;;;7522518;23;20348;-72
2023/02/20 02:55:05;;;;;;;;;;;19.10;53.70;;;;;;7522210;23;20339;-71
2023/02/20 02:58:06;;;;;;;;;;;19.00;53.70;;;;;;7519230;23;19913;-72
2023/02/20 03:01:08;;;;;;;;;;;19.10;53.70;;;;;;7519198;23;19952;-72
2023/02/20 03:04:11;;;;;;;;;;;19.10;53.80;;;;;;7522119;23;19912;-72
2023/02/20 03:07:14;;;;;;;;;;;19.10;53.70;;;;;;7522757;23;20241;-71
2023/02/20 03:10:19;;;;;;;;;;;19.10;53.70;;;;;;7521598;23;20245;-72
2023/02/20 03:13:20;;;;;;;;;;;19.10;53.80;;;;;;7522100;23;19944;-72
2023/02/20 03:16:22;;;;;;;;;;;19.10;53.70;;;;;;7522292;23;20028;-72
2023/02/20 03:19:37;;;;;;;;;;;19.00;53.70;;;;;;7522358;23;19909;-72
2023/02/20 03:22:46;;;;;;;;;;;19.00;53.70;;;;;;7522256;23;19969;-71
2023/02/20 03:25:54;;;;;;;;;;;19.00;53.70;;;;;;7522132;23;20321;-71
2023/02/20 03:29:01;;;;;;;;;;;19.00;53.70;;;;;;7522024;23;19979;-72
2023/02/20 03:45:26;;;;;;;;;;;19.10;53.70;;;;;;7521794;23;19913;-71
2023/02/20 03:48:29;;;;;;;;;;;19.10;53.70;;;;;;7569261;23;19988;-72
2023/02/20 03:51:30;;;;;;;;;;;19.10;53.70;;;;;;7522255;23;19910;-72
2023/02/20 03:54:31;;;;;;;;;;;19.10;53.70;;;;;;7521642;23;19906;-72
2023/02/20 03:57:34;;;;;;;;;;;19.10;53.70;;;;;;7521646;23;19912;-72
2023/02/20 04:00:39;;;;;;;;;;;19.10;53.70;;;;;;7521231;23;19906;-71
2023/02/20 04:03:43;;;;;;;;;;;19.00;53.70;;;;;;7522011;23;19918;-71
2023/02/20 04:06:44;;;;;;;;;;;19.10;53.70;;;;;;7521431;23;19928;-72
2023/02/20 04:09:45;;;;;;;;;;;19.10;53.70;;;;;;7522202;23;19913;-71
2023/02/20 04:12:47;;;;;;;;;;;19.10;53.80;;;;;;7568029;23;19906;-72
2023/02/20 04:15:48;;;;;;;;;;;19.00;53.60;;;;;;7520776;23;19909;-71
2023/02/20 04:18:49;;;;;;;;;;;19.00;53.60;;;;;;7521779;23;19909;-71
2023/02/20 04:21:51;;;;;;;;;;;19.00;53.60;;;;;;7521665;23;19929;-72
2023/02/20 04:24:59;;;;;;;;;;;19.10;53.70;;;;;;7521346;23;19988;-72
2023/02/20 04:28:01;;;;;;;;;;;19.10;53.60;;;;;;7521788;23;20000;-72
2023/02/20 04:31:01;;;;;;;;;;;19.10;53.60;;;;;;7521727;23;19937;-71
2023/02/20 04:34:02;;;;;;;;;;;19.10;53.60;;;;;;7521720;23;20334;-71
2023/02/20 04:37:07;;;;;;;;;;;19.00;53.60;;;;;;7521441;23;19957;-71
2023/02/20 04:40:08;;;;;;;;;;;19.00;53.60;;;;;;7520995;23;19906;-72
2023/02/20 04:43:09;;;;;;;;;;;19.10;53.60;;;;;;7523096;23;19906;-72
2023/02/20 04:46:09;;;;;;;;;;;19.00;53.60;;;;;;7520861;23;19920;-72
2023/02/20 04:49:10;;;;;;;;;;;19.00;53.60;;;;;;7521883;23;19964;-72
2023/02/20 04:52:10;;;;;;;;;;;19.00;53.50;;;;;;7521548;23;19986;-72
2023/02/20 04:55:11;;;;;;;;;;;19.10;53.60;;;;;;7561366;23;19905;-71
2023/02/20 04:58:12;;;;;;;;;;;19.00;53.50;;;;;;7521419;23;20025;-71
2023/02/20 05:01:12;;;;;;;;;;;19.00;53.50;;;;;;7521434;23;19906;-71
2023/02/20 05:04:13;;;;;;;;;;;19.00;54.20;;;;;;7520962;23;19910;-71
2023/02/20 05:07:15;;;;;;;;;;;19.00;53.60;;;;;;7520839;23;19940;-71
2023/02/20 05:10:18;;;;;;;;;;;19.00;53.50;;;;;;7521649;23;19932;-72
2023/02/20 05:13:19;;;;;;;;;;;19.00;53.50;;;;;;7522351;23;19909;-72
2023/02/20 05:16:19;;;;;;;;;;;19.00;53.50;;;;;;7522187;23;19914;-71
2023/02/20 05:19:20;;;;;;;;;;;19.00;53.50;;;;;;7522605;23;19906;-72
2023/02/20 05:22:21;;;;;;;;;;;19.00;53.50;;;;;;7522669;23;19905;-72
2023/02/20 05:25:22;;;;;;;;;;;19.00;53.50;;;;;;7522633;23;19914;-72
2023/02/20 05:28:22;;;;;;;;;;;19.00;53.50;;;;;;7522705;23;20225;-72
2023/02/20 05:31:23;;;;;;;;;;;19.10;53.60;;;;;;7522938;23;19910;-71
2023/02/20 05:34:24;;;;;;;;;;;19.00;53.50;;;;;;7522798;23;20240;-72
2023/02/20 05:37:25;;;;;;;;;;;19.00;53.50;;;;;;7522639;23;19918;-72
2023/02/20 05:40:26;;;;;;;;;;;19.10;53.60;;;;;;7522270;23;19909;-72
2023/02/20 05:43:26;;;;;;;;;;;19.10;53.60;;;;;;7522756;23;19949;-72
2023/02/20 05:46:27;;;;;;;;;;;19.00;53.50;;;;;;7522544;23;19921;-71
2023/02/20 05:49:28;;;;;;;;;;;19.10;53.60;;;;;;7523115;23;20241;-72
2023/02/20 05:52:28;;;;;;;;;;;19.00;53.60;;;;;;7522981;23;19959;-72
2023/02/20 05:55:29;;;;;;;;;;;19.10;53.60;;;;;;7522487;23;19906;-72
2023/02/20 05:58:30;;;;;;;;;;;19.10;53.60;;;;;;7522683;23;19912;-72
2023/02/20 06:01:31;;;;;;;;;;;19.10;53.60;;;;;;7521938;23;19905;-72
2023/02/20 06:04:31;;;;;;;;;;;19.10;53.70;;;;;;7522609;23;19913;-72
2023/02/20 06:07:32;;;;;;;;;;;19.00;53.60;;;;;;7522312;23;19960;-72
2023/02/20 06:10:33;;;;;;;;;;;19.00;53.60;;;;;;7547101;23;19906;-72
2023/02/20 06:13:33;;;;;;;;;;;19.00;53.60;;;;;;7506668;23;19922;-73
2023/02/20 06:16:34;;;;;;;;;;;19.10;53.60;;;;;;7521791;23;19917;-72
2023/02/20 06:19:35;;;;;;;;;;;19.10;53.70;;;;;;7521893;23;19929;-72
2023/02/20 06:22:35;;;;;;;;;;;19.10;53.70;;;;;;7521187;23;19912;-72
2023/02/20 06:25:36;;;;;;;;;;;19.00;53.60;;;;;;7521948;23;19960;-72
2023/02/20 06:28:37;;;;;;;;;;;19.10;53.60;;;;;;7521437;23;20060;-71
2023/02/20 06:31:37;;;;;;;;;;;19.10;53.70;;;;;;7521828;23;20325;-73
2023/02/20 06:34:38;;;;;;;;;;;19.10;53.70;;;;;;7521520;23;19913;-72
2023/02/20 06:37:38;;;;;;;;;;;19.10;53.70;;;;;;7568006;23;19972;-72
2023/02/20 06:40:39;;;;;;;;;;;19.10;53.70;;;;;;7521327;23;19909;-72
2023/02/20 06:43:39;;;;;;;;;;;19.10;53.70;;;;;;7671663;23;19937;-71
2023/02/20 06:46:40;;;;;;;;;;;19.10;53.70;;;;;;7521645;23;20164;-72
2023/02/20 06:49:42;;;;;;;;;;;19.10;53.70;;;;;;7521902;23;19992;-72
2023/02/20 06:52:42;;;;;;;;;;;19.10;53.70;;;;;;7521761;23;19917;-72
2023/02/20 06:55:43;;;;;;;;;;;19.10;53.70;;;;;;7521032;23;19905;-72
2023/02/20 06:58:45;;;;;;;;;;;19.10;53.70;;;;;;7520903;23;19946;-72
2023/02/20 07:01:45;;;;;;;;;;;19.10;53.80;;;;;;7523413;23;20232;-71
2023/02/20 07:04:47;;;;;;;;;;;19.10;53.70;;;;;;7523282;23;19909;-71
2023/02/20 07:07:47;;;;;;;;;;;19.10;53.70;;;;;;7523251;23;19913;-71
2023/02/20 07:10:48;;;;;;;;;;;19.10;53.70;;;;;;7524040;23;20325;-72
2023/02/20 07:13:48;;;;;;;;;;;19.10;53.70;;;;;;7523602;23;19910;-71
2023/02/20 07:16:49;;;;;;;;;;;19.10;53.70;;;;;;7523476;23;19910;-71
2023/02/20 07:19:49;;;;;;;;;;;19.10;53.70;;;;;;7523703;23;19945;-71
2023/02/20 07:22:51;;;;;;;;;;;19.10;53.70;;;;;;7523738;23;19906;-71
2023/02/20 07:25:51;;;;;;;;;;;19.10;53.70;;;;;;7523468;23;19920;-71
2023/02/20 07:28:52;;;;;;;;;;;19.10;53.80;;;;;;7523451;23;19909;-72
2023/02/20 07:31:53;;;;;;;;;;;19.10;53.80;;;;;;7522914;23;19906;-72
2023/02/20 07:34:53;;;;;;;;;;;19.10;53.80;;;;;;7523959;23;20252;-71
2023/02/20 07:37:54;;;;;;;;;;;19.10;53.80;;;;;;7523554;23;19922;-72
2023/02/20 07:40:54;;;;;;;;;;;19.10;53.80;;;;;;7523328;23;19909;-72
2023/02/20 07:43:55;;;;;;;;;;;19.10;53.80;;;;;;7523313;23;19964;-72
2023/02/20 07:46:55;;;;;;;;;;;19.10;53.80;;;;;;7522018;23;19918;-72
2023/02/20 07:49:56;;;;;;;;;;;19.10;53.80;;;;;;7523824;23;19941;-72
2023/02/20 07:52:56;;;;;;;;;;;19.10;53.80;;;;;;7523969;23;20245;-72
2023/02/20 07:55:57;;;;;;;;;;;19.10;53.70;;;;;;7523071;23;19909;-72
2023/02/20 07:58:57;;;;;;;;;;;19.10;53.80;;;;;;7523390;23;19913;-72
2023/02/20 08:01:58;;;;;;;;;;;19.10;53.80;;;;;;7523101;23;19981;-71
2023/02/20 08:04:59;;;;;;;;;;;19.10;53.80;;;;;;7523692;23;19909;-72
2023/02/20 08:07:59;;;;;;;;;;;19.10;53.70;;;;;;7524149;23;20091;-72
2023/02/20 08:11:00;;;;;;;;;;;19.10;53.70;;;;;;7523804;23;20009;-72
2023/02/20 08:14:01;;;;;;;;;;;19.10;53.70;;;;;;7523202;23;19916;-72
2023/02/20 08:17:01;;;;;;;;;;;19.10;53.90;;;;;;7523241;23;19905;-72
2023/02/20 08:20:02;;;;;;;;;;;19.10;53.70;;;;;;7523538;23;20240;-72
2023/02/20 08:23:04;;;;;;;;;;;19.10;53.70;;;;;;7522559;23;19910;-72
2023/02/20 08:26:05;;;;;;;;;;;19.10;53.70;;;;;;7523402;23;19924;-72
2023/02/20 08:29:05;;;;;;;;;;;19.10;53.70;;;;;;7522055;23;19909;-73
2023/02/20 08:32:06;;;;;;;;;;;19.10;53.80;;;;;;7522354;23;19909;-72
2023/02/20 08:35:06;;;;;;;;;;;19.10;53.80;;;;;;7523399;23;19910;-72
2023/02/20 08:38:21;;;;;;;;;;;19.10;53.80;;;;;;7523174;23;20106;-72
2023/02/20 08:41:21;;;;;;;;;;;19.10;53.80;;;;;;7522570;23;20497;-72
2023/02/20 08:44:22;;;;;;;;;;;19.10;53.80;;;;;;7524186;23;19906;-72
2023/02/20 08:47:23;;;;;;;;;;;19.10;54.50;;;;;;7571523;23;19920;-72
2023/02/20 08:50:24;;;;;;;;;;;19.10;53.80;;;;;;7525202;23;20035;-71
2023/02/20 08:53:24;;;;;;;;;;;19.10;53.80;;;;;;7524447;23;19906;-71
2023/02/20 08:56:24;;;;;;;;;;;19.10;53.80;;;;;;7524088;23;19905;-72
2023/02/20 08:59:25;;;;;;;;;;;19.10;53.80;;;;;;7524987;23;19910;-72
2023/02/20 09:02:28;;;;;;;;;;;19.10;53.80;;;;;;7524311;23;19909;-72
2023/02/20 09:05:28;;;;;;;;;;;19.10;53.80;;;;;;7525464;23;19917;-72
2023/02/20 09:08:29;;;;;;;;;;;19.10;53.90;;;;;;7524049;23;19952;-72
2023/02/20 09:11:29;;;;;;;;;;;19.10;53.80;;;;;;7524241;23;19906;-72
2023/02/20 09:14:30;;;;;;;;;;;19.10;53.80;;;;;;7524666;23;20321;-71
2023/02/20 09:17:30;;;;;;;;;;;19.10;53.80;;;;;;7524454;23;19913;-72
2023/02/20 09:20:31;;;;;;;;;;;19.10;53.80;;;;;;7525505;23;19906;-72
2023/02/20 09:23:32;;;;;;;;;;;19.10;53.80;;;;;;7524658;23;19929;-72
2023/02/20 09:26:32;;;;;;;;;;;19.10;53.80;;;;;;7524648;23;19917;-72
2023/02/20 09:29:35;;;;;;;;;;;19.10;53.80;;;;;;7524605;23;19990;-72
2023/02/20 09:32:36;;;;;;;;;;;19.10;53.80;;;;;;7525078;23;19913;-72
2023/02/20 09:35:36;;;;;;;;;;;19.10;53.80;;;;;;7524262;23;19937;-72
2023/02/20 09:38:37;;;;;;;;;;;19.10;53.80;;;;;;7524440;23;19917;-72
2023/02/20 09:41:44;;;;;;;;;;;19.10;53.80;;;;;;7521486;23;19910;-72
2023/02/20 09:44:44;;;;;;;;;;;19.10;53.80;;;;;;7521481;23;19910;-72
2023/02/20 09:47:54;;;;;;;;;;;19.10;53.80;;;;;;7520724;23;19942;-71
2023/02/20 09:50:58;;;;;;;;;;;19.10;53.80;;;;;;7522047;23;19910;-72
2023/02/20 09:54:11;;;;;;;;;;;19.10;53.80;;;;;;7521848;23;19914;-72
2023/02/20 09:57:14;;;;;;;;;;;19.10;53.80;;;;;;7521190;23;19909;-72
2023/02/20 10:00:35;;;;;;;;;;;19.10;53.70;;;;;;7524202;23;19956;-72
2023/02/20 10:03:39;;;;;;;;;;;19.10;53.70;;;;;;7524117;23;19917;-72
2023/02/20 10:06:39;;;;;;;;;;;19.10;53.80;;;;;;7524047;23;20431;-71
2023/02/20 10:09:41;;;;;;;;;;;19.10;53.70;;;;;;7525491;23;19988;-71
2023/02/20 10:12:46;;;;;;;;;;;19.10;53.70;;;;;;7524875;23;19906;-72
2023/02/20 10:15:47;;;;;;;;;;;19.10;53.70;;;;;;7524397;23;19913;-72
2023/02/20 10:19:06;;;;;;;;;;;19.10;53.80;;;;;;7524585;23;19916;-72
2023/02/20 10:22:10;;;;;;;;;;;19.10;53.80;;;;;;7524878;23;20318;-72
2023/02/20 10:25:15;;;;;;;;;;;19.10;53.70;;;;;;7524206;23;20210;-72
2023/02/20 10:28:17;;;;;;;;;;;19.10;53.80;;;;;;7524167;23;19916;-72
2023/02/20 10:31:47;;;;;;;;;;;19.10;53.80;;;;;;7524686;23;19913;-72
2023/02/20 10:34:50;;;;;;;;;;;19.10;53.80;;;;;;7510185;23;19959;-73
2023/02/20 10:37:54;;;;;;;;;;;19.10;53.80;;;;;;7524537;23;20007;-72
2023/02/20 10:41:03;;;;;;;;;;;19.10;53.80;;;;;;7524795;23;19984;-72
2023/02/20 10:44:18;;;;;;;;;;;19.10;53.80;;;;;;7523627;23;19945;-72
2023/02/20 10:47:27;;;;;;;;;;;19.10;53.80;;;;;;7524269;23;19913;-70
2023/02/20 10:50:38;;;;;;;;;;;19.10;53.60;;;;;;7524333;23;19937;-70
2023/02/20 10:53:48;;;;;;;;;;;19.10;53.70;;;;;;7524021;23;19935;-71
2023/02/20 10:57:07;;;;;;;;;;;19.10;53.70;;;;;;7523996;23;19909;-71
2023/02/20 11:00:31;;;;;;;;;;;19.10;53.70;;;;;;7523821;23;20284;-71
2023/02/20 11:03:47;;;;;;;;;;;19.20;53.80;;;;;;7515849;23;19965;-71
2023/02/20 11:06:58;;;;;;;;;;;19.10;53.70;;;;;;7523721;23;19940;-71
2023/02/20 11:09:59;;;;;;;;;;;19.10;53.80;;;;;;7523565;23;19906;-71
2023/02/20 11:13:00;;;;;;;;;;;19.10;53.80;;;;;;7524259;23;20253;-71
2023/02/20 11:16:00;;;;;;;;;;;19.10;53.80;;;;;;7523278;23;19905;-71
2023/02/20 11:21:36;;;;;;;3.60;0.50;;;19.20;58.00;;;;;;6292192;28;20416;-69
2023/02/20 11:24:41;;;;;;;0.52;0.40;;;19.30;53.60;;;;;;6292676;28;20508;-70
2023/02/20 11:27:45;;;;;;;0.95;0.60;;;19.30;53.50;;;;;;6292664;28;20040;-69
2023/02/20 11:30:57;;;;;;;1.90;0.50;;;19.20;53.60;;;;;;6292407;28;20508;-69
2023/02/20 11:34:00;;;;;;;2.60;0.60;;;19.20;53.70;;;;;;6292163;28;20020;-72
2023/02/20 11:37:04;;;;;;;1.00;0.50;;;19.20;53.80;;;;;;6291975;28;20404;-70
2023/02/20 11:40:14;;;;;;;1.00;0.60;;;19.20;53.90;;;;;;6291868;28;20159;-69
2023/02/20 11:43:23;;;;;;;1.23;0.50;;;19.10;53.80;;;;;;6291685;28;20028;-69
2023/02/20 11:46:23;;;;;;;1.65;0.57;;;19.20;53.90;;;;;;6310909;28;20023;-70
2023/02/20 11:49:28;;;;;;;0.70;0.40;;;19.20;53.90;;;;;;6315988;28;20032;-69
2023/02/20 11:52:28;;;;;;;0.60;0.43;;;19.10;53.90;;;;;;6317034;28;20036;-69
2023/02/20 11:55:31;;;;;;;0.43;0.40;;;19.10;53.80;;;;;;6317094;28;20031;-69
2023/02/20 11:58:31;;;;;;;0.60;0.50;;;19.10;53.90;;;;;;6306014;28;20076;-68
2023/02/20 12:01:36;;;;;;;0.93;0.60;;;19.20;54.00;;;;;;6290623;28;20514;-69
2023/02/20 12:04:37;;;;;;;;;;;19.20;54.00;;;;;;6292085;28;20124;-69
2023/02/20 12:07:43;;;;;;;0.73;0.40;;;19.10;53.90;;;;;;6291532;28;20305;-69
2023/02/20 12:10:47;;;;;;;0.50;0.40;;;19.10;53.90;;;;;;6290090;28;20052;-69
2023/02/20 12:13:51;;;;;;;0.45;0.40;;;19.10;53.90;;;;;;6291269;28;20031;-68
2023/02/20 12:17:08;;;;;;;0.45;0.40;;;19.10;53.90;;;;;;6291194;28;20025;-68
2023/02/20 12:20:24;;;;;;;0.50;0.50;;;19.10;53.90;;;;;;6290712;28;20036;-69
2023/02/20 12:23:47;;;;;;;0.90;0.40;;;19.10;53.90;;;;;;6291042;28;20029;-69
2023/02/20 12:26:50;;;;;;;0.65;0.55;;;19.10;53.90;;;;;;6290882;28;20024;-68
2023/02/20 12:29:56;;;;;;;0.70;0.52;;;19.10;53.90;;;;;;6289167;28;20033;-70
2023/02/20 12:33:21;;;;;;;2.38;0.70;;;19.10;54.00;;;;;;6273721;28;20095;-68
2023/02/20 12:36:41;;;;;;;0.75;0.60;;;19.10;54.00;;;;;;6274554;28;20474;-69
2023/02/20 12:39:53;;;;;;;0.68;0.50;;;19.10;54.00;;;;;;6273059;28;20569;-69
2023/02/20 12:43:31;;;;;;;1.58;0.80;;;19.10;53.90;;;;;;6274048;28;20031;-69
2023/02/20 12:46:52;;;;;;;1.10;0.50;;;19.10;53.80;;;;;;6274357;28;20066;-71
2023/02/20 12:50:16;;;;;;;2.75;0.80;;;19.20;54.00;;;;;;6249112;28;20053;-71
2023/02/20 12:53:42;;;;;;;1.58;0.70;;;19.10;53.90;;;;;;6270437;28;20021;-70
2023/02/20 12:56:52;;;;;;;;;;;19.10;53.90;;;;;;6273273;28;20032;-70
2023/02/20 13:00:14;;;;;;;1.55;0.70;;;19.10;54.00;;;;;;6273063;28;20003;-70
2023/02/20 13:03:22;;;;;;;1.17;0.55;;;19.10;54.00;;;;;;6272380;28;20382;-71
2023/02/20 13:07:01;;;;;;;4.45;1.02;;;19.10;54.00;;;;;;6272287;28;20025;-71
2023/02/20 13:10:20;;;;;;;1.48;0.60;;;19.10;54.00;;;;;;6273500;28;20033;-71
2023/02/20 13:13:27;;;;;;;1.20;0.85;;;19.10;54.00;;;;;;6272268;28;20037;-70
2023/02/20 13:16:35;;;;;;;0.85;0.52;;;19.10;54.00;;;;;;6273277;28;20451;-70
2023/02/20 13:19:44;;;;;;;2.30;0.68;;;19.10;54.00;;;;;;6273062;28;20051;-70
2023/02/20 13:23:14;;;;;;;2.08;0.50;;;19.10;54.00;;;;;;6273109;28;20017;-70
2023/02/20 13:26:33;;;;;;;0.98;0.68;;;19.10;54.00;;;;;;6272236;28;20518;-70
2023/02/20 13:29:54;;;;;;;1.50;0.88;;;19.10;54.00;;;;;;6298158;28;20021;-70
2023/02/20 13:33:23;;;;;;;1.08;0.70;;;19.10;54.00;;;;;;6278932;28;20060;-69
2023/02/20 13:36:45;;;;;;;1.25;0.70;;;19.10;54.00;;;;;;6271140;28;20021;-71
2023/02/20 13:39:46;;;;;;;1.08;0.50;;;19.10;54.10;;;;;;6296525;28;20112;-70
2023/02/20 13:43:07;;;;;;;1.85;0.80;;;19.10;54.10;;;;;;6295475;28;20107;-70
2023/02/20 13:46:13;;;;;;;0.93;0.68;;;19.10;54.10;;;;;;6294967;28;20020;-69
2023/02/20 13:49:48;;;;;;;1.08;0.70;;;19.10;54.10;;;;;;6273747;28;20017;-70
2023/02/20 13:52:55;;;;;;;0.60;0.43;;;19.20;54.10;;;;;;6270148;28;20021;-70
2023/02/20 13:55:55;;;;;;;1.02;0.60;;;19.10;54.00;;;;;;6271662;28;20025;-70
2023/02/20 13:58:58;;;;;;;0.70;0.65;;;19.10;54.10;;;;;;6271323;28;20421;-70
2023/02/20 14:02:23;;;;;;;1.20;0.70;;;19.10;54.10;;;;;;6271398;28;20427;-70
2023/02/20 14:05:26;;;;;;;1.40;0.60;;;19.10;54.10;;;;;;6270032;28;20021;-70
2023/02/20 14:08:26;;;;;;;0.88;0.60;;;19.10;54.20;;;;;;6270655;28;20481;-70
2023/02/20 14:11:33;;;;;;;2.53;0.70;;;19.10;54.20;;;;;;6265054;28;20032;-70
2023/02/20 14:14:40;;;;;;;0.70;0.60;;;19.10;54.50;;;;;;6289292;28;20023;-70
2023/02/20 14:17:42;;;;;;;1.10;0.63;;;19.10;54.20;;;;;;6280379;28;20481;-70
2023/02/20 14:20:44;;;;;;;1.67;0.80;;;19.10;54.20;;;;;;6270976;28;20556;-71
2023/02/20 14:23:52;;;;;;;1.33;0.80;;;19.10;54.20;;;;;;6268905;28;20446;-70
2023/02/20 14:26:58;;;;;;;1.75;1.00;;;19.10;54.20;;;;;;6269002;28;20021;-70
2023/02/20 14:30:07;;;;;;;1.45;0.80;;;19.10;54.30;;;;;;6269291;28;20032;-70
2023/02/20 14:33:23;;;;;;;1.48;0.80;;;19.10;54.30;;;;;;6269342;28;20021;-71
2023/02/20 14:36:30;;;;;;;2.60;1.00;;;19.10;54.20;;;;;;6269318;28;20061;-70
2023/02/20 14:40:03;;;;;;;3.85;0.80;;;19.10;54.20;;;;;;6270382;28;20136;-71
2023/02/20 14:43:38;;;;;;;0.73;0.70;;;19.10;54.30;;;;;;6273219;28;20028;-70
2023/02/20 14:46:39;;;;;;;1.63;1.10;;;19.10;54.30;;;;;;6293841;28;20032;-70
2023/02/20 14:49:41;;;;;;;1.02;0.75;;;19.10;54.30;;;;;;6280810;28;20074;-75
2023/02/20 14:52:41;;;;;;;1.90;0.90;;;19.10;54.30;;;;;;6270878;28;20033;-72
2023/02/20 14:55:43;;;;;;;1.77;0.95;;;19.10;54.40;;;;;;6270293;28;20040;-70
2023/02/20 14:58:45;;;;;;;3.08;1.75;;;19.10;54.30;;;;;;6269772;28;20478;-69
2023/02/20 15:01:46;;;;;;;5.30;2.60;;;19.10;53.80;;;;;;6269256;28;20024;-71
2023/02/20 15:04:53;;;;;;;2.42;1.30;;;19.10;53.60;;;;;;6282437;28;20059;-70
2023/02/20 15:08:19;;;;;;;3.65;1.38;;;19.10;54.10;;;;;;6253749;28;20383;-70
2023/02/20 15:11:20;;;;;;;6.65;1.60;;;19.10;53.50;;;;;;6243795;28;20048;-71
2023/02/20 15:14:24;;;;;;;2.00;1.45;;;19.20;53.80;;;;;;6262548;28;20036;-70
2023/02/20 15:17:33;;;;;;;1.73;1.23;;;19.20;53.70;;;;;;6280134;28;20055;-70
2023/02/20 15:20:41;;;;;;;2.00;1.25;;;19.10;53.70;;;;;;6269825;28;20490;-71
2023/02/20 15:23:50;;;;;;;2.03;1.10;;;19.10;53.90;;;;;;6286166;28;20021;-71
2023/02/20 15:27:27;;;;;;;;;;;;;;;;;;;;;
2023/02/20 15:30:31;;;;;;;2.10;1.05;;;19.10;54.00;;;;;;6280253;28;20110;-70
2023/02/20 15:33:53;;;;;;;2.63;1.40;;;19.10;54.10;;;;;;6268499;28;20025;-70
2023/02/20 15:36:55;;;;;;;2.83;1.30;;;19.10;54.10;;;;;;6243556;28;20022;-70
2023/02/20 15:40:15;;;;;;;2.83;1.38;;;19.10;54.10;;;;;;6252465;28;20025;-70
2023/02/20 15:43:16;;;;;;;1.85;1.15;;;19.10;54.10;;;;;;6269459;28;20017;-71
2023/02/20 15:46:17;;;;;;;3.65;1.50;;;19.10;54.00;;;;;;6269909;28;20032;-71
2023/02/20 15:49:18;;;;;;;1.75;1.10;;;19.10;54.10;;;;;;6269148;28;20055;-71
2023/02/20 15:52:19;;;;;;;2.78;1.25;;;19.20;54.10;;;;;;6268525;28;20028;-69
2023/02/20 15:55:22;;;;;;;3.85;1.70;;;19.10;54.10;;;;;;6268198;28;20032;-69
2023/02/20 15:58:28;;;;;;;1.80;1.30;;;19.10;54.10;;;;;;6269114;28;20123;-71
2023/02/20 16:02:09;;;;;;;3.63;1.60;;;19.10;54.10;;;;;;6268628;28;20076;-71
2023/02/20 16:08:39;;;;;;;4.43;1.60;;;19.10;54.10;;;;;;6249308;28;20534;-71
2023/02/20 16:11:46;;;;;;;5.95;2.30;;;19.10;54.10;;;;;;6266556;28;20019;-71
2023/02/20 16:14:52;;;;;;;6.82;2.40;;;19.10;54.20;;;;;;6272565;28;20103;-71
2023/02/20 16:17:54;;;;;;;8.43;2.70;;;19.10;54.10;;;;;;6290329;28;20017;-71
2023/02/20 16:20:54;;;;;;;7.75;2.72;;;19.10;54.10;;;;;;6286658;28;20581;-71
2023/02/20 16:23:55;;;;;;;7.68;2.60;;;19.10;54.10;;;;;;6272436;28;20025;-71
2023/02/20 16:26:56;;;;;;;8.43;3.50;;;19.10;54.20;;;;;;6272428;28;20032;-71
2023/02/20 16:30:25;;;;;;;6.18;2.88;;;19.10;54.10;;;;;;6273014;28;20027;-71
2023/02/20 16:33:26;;;;;;;12.68;3.72;;;19.10;54.10;;;;;;6272301;28;20025;-69
2023/02/20 16:36:31;;;;;;;9.52;4.10;;;19.10;54.10;;;;;;6283040;28;20020;-69
2023/02/20 16:39:33;;;;;;;14.02;4.70;;;19.10;54.10;;;;;;6296219;28;20042;-71
2023/02/20 16:42:37;;;;;;;13.25;4.32;;;19.10;54.20;;;;;;6296554;28;20410;-70
2023/02/20 16:45:42;;;;;;;17.98;5.43;;;19.10;54.20;;;;;;6282413;28;20094;-70
2023/02/20 16:48:47;;;;;;;16.20;5.57;;;19.10;54.10;;;;;;6278978;28;20026;-70
2023/02/20 16:51:50;;;;;;;17.92;6.45;;;19.10;54.20;;;;;;6257901;28;20025;-70
2023/02/20 16:54:54;;;;;;;17.35;6.28;;;19.10;54.20;;;;;;6272352;28;20532;-69
2023/02/20 16:57:55;;;;;;;20.63;6.28;;;19.10;54.20;;;;;;6270920;28;20162;-71
2023/02/20 17:00:56;;;;;;;16.67;6.22;;;19.10;54.20;;;;;;6272912;28;20032;-66
2023/02/20 17:03:58;;;;;;;15.70;6.22;;;19.10;54.20;;;;;;6273722;28;20078;-67
2023/02/20 17:06:59;;;;;;;19.45;6.32;;;19.10;54.20;;;;;;6272331;28;20055;-67
2023/02/20 17:10:00;;;;;;;24.30;6.68;;;19.10;54.20;;;;;;6273360;28;20033;-67
2023/02/20 17:13:01;;;;;;;19.58;7.10;;;19.10;54.10;;;;;;6259293;28;20037;-67
2023/02/20 17:16:02;;;;;;;20.98;6.88;;;19.20;54.10;;;;;;6248543;28;20044;-66
2023/02/20 17:19:02;;;;;;;20.58;6.65;;;19.10;54.10;;;;;;6269062;28;20072;-69
2023/02/20 17:22:03;;;;;;;24.95;7.63;;;19.10;54.10;;;;;;6277712;28;20029;-69
2023/02/20 17:25:04;;;;;;;21.63;6.95;;;19.10;54.10;;;;;;6275621;28;20048;-69
2023/02/20 17:28:05;;;;;;;20.50;7.28;;;19.10;54.90;;;;;;6261335;28;20017;-69
2023/02/20 17:31:06;;;;;;;27.35;7.53;;;19.10;54.20;;;;;;6268133;28;20025;-69
2023/02/20 17:34:07;;;;;;;18.60;6.97;;;19.10;54.20;;;;;;6268010;28;20630;-69